createdAt,value
2023-01-01T00:01:30.971Z,16.50
2023-01-01T00:04:01.863Z,16.40
2023-01-01T00:06:31.073Z,16.40
2023-01-01T00:09:18.404Z,16.40
2023-01-01T00:11:47.696Z,16.40
2023-01-01T00:14:16.851Z,16.40
2023-01-01T00:16:46.271Z,16.40
2023-01-01T00:19:15.379Z,16.40
2023-01-01T00:21:44.590Z,16.40
2023-01-01T00:24:13.980Z,16.40
2023-01-01T00:26:43.069Z,16.40
2023-01-01T00:29:12.405Z,16.40
2023-01-01T00:31:41.569Z,16.40
2023-01-01T00:34:12.385Z,16.50
2023-01-01T00:36:41.565Z,16.50
2023-01-01T00:39:10.705Z,16.50
2023-01-01T00:41:39.890Z,16.50
2023-01-01T00:44:09.402Z,16.50
2023-01-01T00:46:38.582Z,16.50
2023-01-01T00:49:07.774Z,16.60
2023-01-01T00:51:37.364Z,16.60
2023-01-01T00:54:06.719Z,16.70
2023-01-01T00:56:36.709Z,16.70
2023-01-01T00:59:05.937Z,16.70
2023-01-01T01:01:35.673Z,16.80
2023-01-01T01:04:06.403Z,16.80
2023-01-01T01:06:35.792Z,16.80
2023-01-01T01:09:05.538Z,16.90
2023-01-01T01:11:34.972Z,16.90
2023-01-01T01:14:04.204Z,17.00
2023-01-01T01:16:39.243Z,17.00
2023-01-01T01:19:10.769Z,17.10
2023-01-01T01:21:40.850Z,17.20
2023-01-01T01:24:11.796Z,17.20
2023-01-01T01:26:40.998Z,17.30
2023-01-01T01:29:10.168Z,17.30
2023-01-01T01:31:39.255Z,17.30
2023-01-01T01:34:10.902Z,17.40
2023-01-01T01:36:44.414Z,17.40
2023-01-01T01:39:14.133Z,17.50
2023-01-01T01:41:48.209Z,17.50
2023-01-01T01:44:52.824Z,17.60
2023-01-01T01:47:51.563Z,17.60
2023-01-01T01:50:39.278Z,17.70
2023-01-01T01:53:27.434Z,17.80
2023-01-01T01:56:04.876Z,17.80
2023-01-01T01:58:35.437Z,17.90
2023-01-01T02:01:05.642Z,17.90
2023-01-01T02:04:01.479Z,18.00
2023-01-01T02:06:33.861Z,18.00
2023-01-01T02:09:07.331Z,18.10
2023-01-01T02:11:36.679Z,18.10
2023-01-01T02:14:07.761Z,18.20
2023-01-01T02:16:54.197Z,18.20
2023-01-01T02:19:53.615Z,18.30
2023-01-01T02:22:48.271Z,18.30
2023-01-01T02:25:59.881Z,18.40
2023-01-01T02:28:55.736Z,18.50
2023-01-01T02:31:35.591Z,18.60
2023-01-01T02:34:11.135Z,18.70
2023-01-01T02:36:49.930Z,18.80
2023-01-01T02:39:26.660Z,18.90
2023-01-01T02:42:00.520Z,19.00
2023-01-01T02:44:33.507Z,19.10
2023-01-01T02:47:18.134Z,19.20
2023-01-01T02:50:15.333Z,19.30
2023-01-01T02:53:05.090Z,19.40
2023-01-01T02:55:43.086Z,19.50
2023-01-01T02:58:48.943Z,19.60
2023-01-01T03:01:27.061Z,19.70
2023-01-01T03:04:40.007Z,19.80
2023-01-01T03:07:27.958Z,19.90
2023-01-01T03:10:06.304Z,20.10
2023-01-01T03:12:52.865Z,20.20
2023-01-01T03:15:44.389Z,20.30
2023-01-01T03:18:31.627Z,20.40
2023-01-01T03:21:06.648Z,20.50
2023-01-01T03:23:49.946Z,20.60
2023-01-01T03:26:22.002Z,20.70
2023-01-01T03:29:00.144Z,20.80
2023-01-01T03:31:29.468Z,20.90
2023-01-01T03:34:14.281Z,21.00
2023-01-01T03:36:53.191Z,21.10
2023-01-01T03:39:32.715Z,21.20
2023-01-01T03:42:30.538Z,21.30
2023-01-01T03:45:31.296Z,21.50
2023-01-01T03:48:02.129Z,21.60
2023-01-01T03:51:31.439Z,21.70
2023-01-01T03:54:10.876Z,21.80
2023-01-01T03:57:02.524Z,21.90
2023-01-01T03:59:47.846Z,22.00
2023-01-01T04:02:23.093Z,22.10
2023-01-01T04:04:52.612Z,22.20
2023-01-01T04:07:22.988Z,22.30
2023-01-01T04:09:57.313Z,22.40
2023-01-01T04:12:27.099Z,22.50
2023-01-01T04:14:56.255Z,22.60
2023-01-01T04:17:25.339Z,22.70
2023-01-01T04:19:55.317Z,22.80
2023-01-01T04:22:24.869Z,22.90
2023-01-01T04:24:54.107Z,23.00
2023-01-01T04:27:23.234Z,23.00
2023-01-01T04:29:52.317Z,23.10
2023-01-01T04:32:21.508Z,23.20
2023-01-01T04:34:51.595Z,23.20
2023-01-01T04:37:20.696Z,23.30
2023-01-01T04:39:50.009Z,23.30
2023-01-01T04:42:19.112Z,23.40
2023-01-01T04:44:48.191Z,23.40
2023-01-01T04:47:17.359Z,23.40
2023-01-01T04:49:46.427Z,23.50
2023-01-01T04:52:15.875Z,23.50
2023-01-01T04:54:44.986Z,23.60
2023-01-01T04:57:14.454Z,23.60
2023-01-01T04:59:43.934Z,23.70
2023-01-01T05:02:13.250Z,23.70
2023-01-01T05:04:42.517Z,23.80
2023-01-01T05:07:11.665Z,23.90
2023-01-01T05:09:40.852Z,24.00
2023-01-01T05:12:10.050Z,24.10
2023-01-01T05:14:39.201Z,24.20
2023-01-01T05:17:08.282Z,24.20
2023-01-01T05:19:37.410Z,24.40
2023-01-01T05:22:10.930Z,24.40
2023-01-01T05:24:40.628Z,24.50
2023-01-01T05:27:09.782Z,24.50
2023-01-01T05:29:38.960Z,24.50
2023-01-01T05:37:02.982Z,24.40
2023-01-01T05:39:32.212Z,24.40
2023-01-01T05:42:01.384Z,24.40
2023-01-01T05:44:30.586Z,24.50
2023-01-01T05:46:59.792Z,24.50
2023-01-01T05:49:29.397Z,24.60
2023-01-01T05:51:58.614Z,24.60
2023-01-01T05:54:27.811Z,24.50
2023-01-01T05:56:56.967Z,24.60
2023-01-01T05:59:26.283Z,24.50
2023-01-01T06:01:55.571Z,24.50
2023-01-01T06:04:24.904Z,24.50
2023-01-01T06:06:54.133Z,24.50
2023-01-01T06:09:23.418Z,24.50
2023-01-01T06:11:52.630Z,24.50
2023-01-01T06:14:21.832Z,24.50
2023-01-01T06:16:51.381Z,24.40
2023-01-01T06:19:20.691Z,24.50
2023-01-01T06:21:49.909Z,24.50
2023-01-01T06:24:19.107Z,24.60
2023-01-01T06:26:48.325Z,24.60
2023-01-01T06:29:17.552Z,24.70
2023-01-01T06:31:46.764Z,24.80
2023-01-01T06:34:15.951Z,24.80
2023-01-01T06:36:45.175Z,24.90
2023-01-01T06:39:14.555Z,25.10
2023-01-01T06:41:43.841Z,25.20
2023-01-01T06:44:13.060Z,25.30
2023-01-01T06:46:42.325Z,25.50
2023-01-01T06:49:14.829Z,25.70
2023-01-01T06:51:45.620Z,25.80
2023-01-01T06:54:14.862Z,26.00
2023-01-01T06:56:44.183Z,26.10
2023-01-01T06:59:13.747Z,26.20
2023-01-01T07:01:44.480Z,26.30
2023-01-01T07:04:17.342Z,26.40
2023-01-01T07:06:46.667Z,26.50
2023-01-01T07:09:15.969Z,26.50
2023-01-01T07:11:45.265Z,26.60
2023-01-01T07:14:14.503Z,26.70
2023-01-01T07:16:43.753Z,26.80
2023-01-01T07:19:12.957Z,26.90
2023-01-01T07:21:56.769Z,27.00
2023-01-01T07:24:26.006Z,27.10
2023-01-01T07:26:55.187Z,27.20
2023-01-01T07:29:24.416Z,27.30
2023-01-01T07:31:53.587Z,27.40
2023-01-01T07:34:24.809Z,27.50
2023-01-01T07:36:55.217Z,27.50
2023-01-01T07:39:24.508Z,27.50
2023-01-01T07:41:53.716Z,27.60
2023-01-01T07:44:22.911Z,27.60
2023-01-01T07:46:52.327Z,27.70
2023-01-01T07:49:21.573Z,27.70
2023-01-01T07:51:50.732Z,27.80
2023-01-01T07:54:22.544Z,27.80
2023-01-01T07:56:51.848Z,27.70
2023-01-01T07:59:21.070Z,27.80
2023-01-01T08:01:50.438Z,27.70
2023-01-01T08:04:19.703Z,27.70
2023-01-01T08:06:48.897Z,27.60
2023-01-01T08:09:18.117Z,27.60
2023-01-01T08:11:47.647Z,27.60
2023-01-01T08:14:16.953Z,27.60
2023-01-01T08:16:46.174Z,27.70
2023-01-01T08:19:15.424Z,27.70
2023-01-01T08:21:44.646Z,27.70
2023-01-01T08:24:13.828Z,27.80
2023-01-01T08:26:43.055Z,27.70
2023-01-01T08:29:13.104Z,27.70
2023-01-01T08:31:42.373Z,27.70
2023-01-01T08:34:11.635Z,27.70
2023-01-01T08:36:44.159Z,27.60
2023-01-01T08:39:13.464Z,27.70
2023-01-01T08:41:42.674Z,27.70
2023-01-01T08:44:11.837Z,27.70
2023-01-01T08:46:41.078Z,27.70
2023-01-01T08:49:10.322Z,27.70
2023-01-01T08:51:39.755Z,27.70
2023-01-01T08:54:09.238Z,27.60
2023-01-01T08:56:38.683Z,27.60
2023-01-01T08:59:07.955Z,27.60
2023-01-01T09:01:37.252Z,27.50
2023-01-01T09:04:15.197Z,27.50
2023-01-01T09:06:44.847Z,27.50
2023-01-01T09:09:14.459Z,27.50
2023-01-01T09:12:05.852Z,27.50
2023-01-01T09:14:36.412Z,27.50
2023-01-01T09:17:06.221Z,27.50
2023-01-01T09:19:35.336Z,27.40
2023-01-01T09:22:04.503Z,27.30
2023-01-01T09:24:33.721Z,27.30
2023-01-01T09:27:02.911Z,27.30
2023-01-01T09:29:32.082Z,27.20
2023-01-01T09:32:01.206Z,27.20
2023-01-01T09:34:30.504Z,27.20
2023-01-01T09:36:59.589Z,27.10
2023-01-01T09:39:28.731Z,27.10
2023-01-01T09:42:32.848Z,27.10
2023-01-01T09:45:26.630Z,27.00
2023-01-01T09:48:07.578Z,27.00
2023-01-01T09:50:47.995Z,26.90
2023-01-01T09:53:25.423Z,26.80
2023-01-01T09:56:03.724Z,26.80
2023-01-01T09:58:40.166Z,26.70
2023-01-01T10:01:39.766Z,26.70
2023-01-01T10:04:27.002Z,26.60
2023-01-01T10:07:06.740Z,26.60
2023-01-01T10:10:09.967Z,26.50
2023-01-01T10:13:01.656Z,26.40
2023-01-01T10:15:49.521Z,26.40
2023-01-01T10:18:34.505Z,26.30
2023-01-01T10:21:33.112Z,26.20
2023-01-01T10:24:39.621Z,26.10
2023-01-01T10:27:14.748Z,26.00
2023-01-01T10:29:51.131Z,25.90
2023-01-01T10:32:34.884Z,25.80
2023-01-01T10:35:16.247Z,25.70
2023-01-01T10:37:46.075Z,25.60
2023-01-01T10:40:23.359Z,25.50
2023-01-01T10:43:01.153Z,25.40
2023-01-01T10:45:56.419Z,25.30
2023-01-01T10:48:29.683Z,25.20
2023-01-01T10:51:07.562Z,25.10
2023-01-01T10:53:50.945Z,25.00
2023-01-01T10:56:26.518Z,24.90
2023-01-01T10:59:02.075Z,24.80
2023-01-01T11:01:35.183Z,24.70
2023-01-01T11:04:10.701Z,24.70
2023-01-01T11:06:49.280Z,24.60
2023-01-01T11:09:38.003Z,24.50
2023-01-01T11:12:54.786Z,24.40
2023-01-01T11:15:24.072Z,24.40
2023-01-01T11:17:53.820Z,24.30
2023-01-01T11:20:23.635Z,24.20
2023-01-01T11:22:53.843Z,24.20
2023-01-01T11:25:28.559Z,24.20
2023-01-01T11:28:23.457Z,24.10
2023-01-01T11:31:17.474Z,24.10
2023-01-01T11:33:46.655Z,24.00
2023-01-01T11:36:31.354Z,24.00
2023-01-01T11:39:27.803Z,24.00
2023-01-01T11:41:59.626Z,23.90
2023-01-01T11:44:48.641Z,23.90
2023-01-01T11:47:41.128Z,23.80
2023-01-01T11:50:23.114Z,23.80
2023-01-01T11:52:54.843Z,23.70
2023-01-01T11:55:44.191Z,23.70
2023-01-01T11:58:38.226Z,23.60
2023-01-01T12:01:19.403Z,23.60
2023-01-01T12:04:08.531Z,23.60
2023-01-01T12:07:09.234Z,23.50
2023-01-01T12:10:07.879Z,23.50
2023-01-01T12:13:01.950Z,23.40
2023-01-01T12:16:08.823Z,23.40
2023-01-01T12:18:59.599Z,23.30
2023-01-01T12:21:32.045Z,23.30
2023-01-01T12:24:01.495Z,23.20
2023-01-01T12:26:50.301Z,23.20
2023-01-01T12:29:37.490Z,23.20
2023-01-01T12:32:30.203Z,23.10
2023-01-01T12:35:28.082Z,23.10
2023-01-01T12:38:28.884Z,23.10
2023-01-01T12:41:36.289Z,23.10
2023-01-01T12:44:43.963Z,23.10
2023-01-01T12:48:03.171Z,23.00
2023-01-01T12:51:05.380Z,23.00
2023-01-01T12:53:48.076Z,23.00
2023-01-01T12:56:45.646Z,23.00
2023-01-01T12:59:29.549Z,22.90
2023-01-01T13:02:04.092Z,22.90
2023-01-01T13:04:33.394Z,22.90
2023-01-01T13:07:15.770Z,22.90
2023-01-01T13:09:50.843Z,22.80
2023-01-01T13:12:25.489Z,22.80
2023-01-01T13:14:56.073Z,22.70
2023-01-01T13:17:29.670Z,22.70
2023-01-01T13:20:27.582Z,22.70
2023-01-01T13:22:59.664Z,22.60
2023-01-01T13:25:28.925Z,22.60
2023-01-01T13:27:58.267Z,22.60
2023-01-01T13:30:42.534Z,22.60
2023-01-01T13:33:43.858Z,22.50
2023-01-01T13:36:24.242Z,22.50
2023-01-01T13:39:03.195Z,22.40
2023-01-01T13:41:45.160Z,22.40
2023-01-01T13:44:22.931Z,22.40
2023-01-01T13:47:53.899Z,22.30
2023-01-01T13:50:49.035Z,22.30
2023-01-01T13:53:45.807Z,22.20
2023-01-01T13:56:55.948Z,22.20
2023-01-01T14:00:07.515Z,22.10
2023-01-01T14:02:47.559Z,22.10
2023-01-01T14:05:49.854Z,22.00
2023-01-01T14:08:38.470Z,22.00
2023-01-01T14:11:26.814Z,21.90
2023-01-01T14:13:57.133Z,21.90
2023-01-01T14:16:29.271Z,21.90
2023-01-01T14:19:04.353Z,21.80
2023-01-01T14:21:36.113Z,21.80
2023-01-01T14:24:11.554Z,21.80
2023-01-01T14:26:42.713Z,21.70
2023-01-01T14:29:36.651Z,21.70
2023-01-01T14:32:23.517Z,21.70
2023-01-01T14:35:03.828Z,21.60
2023-01-01T14:37:33.493Z,21.60
2023-01-01T14:40:24.727Z,21.50
2023-01-01T14:43:11.799Z,21.50
2023-01-01T14:45:45.510Z,21.50
2023-01-01T14:48:23.019Z,21.40
2023-01-01T14:50:54.578Z,21.40
2023-01-01T14:53:34.742Z,21.40
2023-01-01T14:56:07.977Z,21.30
2023-01-01T14:58:37.539Z,21.30
2023-01-01T15:01:28.049Z,21.30
2023-01-01T15:04:06.259Z,21.20
2023-01-01T15:06:41.771Z,21.20
2023-01-01T15:09:18.584Z,21.20
2023-01-01T15:11:48.023Z,21.10
2023-01-01T15:14:43.460Z,21.10
2023-01-01T15:17:28.756Z,21.10
2023-01-01T15:20:23.145Z,21.00
2023-01-01T15:22:55.652Z,21.00
2023-01-01T15:25:25.840Z,20.90
2023-01-01T15:27:58.568Z,20.90
2023-01-01T15:30:35.039Z,20.90
2023-01-01T15:33:20.341Z,20.80
2023-01-01T15:35:52.720Z,20.80
2023-01-01T15:38:26.032Z,20.80
2023-01-01T15:40:55.596Z,20.80
2023-01-01T15:43:30.642Z,20.70
2023-01-01T15:46:27.458Z,20.70
2023-01-01T15:48:59.666Z,20.70
2023-01-01T15:51:31.102Z,20.70
2023-01-01T15:54:06.499Z,20.60
2023-01-01T15:56:42.134Z,20.60
2023-01-01T15:59:35.548Z,20.60
2023-01-01T16:02:31.240Z,20.60
2023-01-01T16:05:01.387Z,20.60
2023-01-01T16:07:31.586Z,20.60
2023-01-01T16:10:00.721Z,20.60
2023-01-01T16:12:30.871Z,20.50
2023-01-01T16:15:00.034Z,20.50
2023-01-01T16:17:29.975Z,20.50
2023-01-01T16:19:59.182Z,20.40
2023-01-01T16:22:31.899Z,20.40
2023-01-01T16:25:26.930Z,20.40
2023-01-01T16:27:56.122Z,20.30
2023-01-01T16:30:27.940Z,20.20
2023-01-01T16:32:57.265Z,20.20
2023-01-01T16:35:26.422Z,20.10
2023-01-01T16:37:55.564Z,20.10
2023-01-01T16:40:24.802Z,20.00
2023-01-01T16:42:53.953Z,20.00
2023-01-01T16:45:23.114Z,19.90
2023-01-01T16:47:52.326Z,19.80
2023-01-01T16:50:21.630Z,19.80
2023-01-01T16:52:50.806Z,19.80
2023-01-01T16:55:20.139Z,19.70
2023-01-01T16:57:50.010Z,19.70
2023-01-01T17:00:19.550Z,19.60
2023-01-01T17:02:51.512Z,19.60
2023-01-01T17:05:20.785Z,19.50
2023-01-01T17:07:49.968Z,19.50
2023-01-01T17:10:19.264Z,19.50
2023-01-01T17:12:48.448Z,19.50
2023-01-01T17:15:17.725Z,19.50
2023-01-01T17:17:47.162Z,19.50
2023-01-01T17:20:16.312Z,19.50
2023-01-01T17:22:45.397Z,19.50
2023-01-01T17:25:14.797Z,19.50
2023-01-01T17:27:46.312Z,19.50
2023-01-01T17:30:16.616Z,19.50
2023-01-01T17:32:45.672Z,19.40
2023-01-01T17:35:14.817Z,19.40
2023-01-01T17:37:43.960Z,19.40
2023-01-01T17:40:13.632Z,19.40
2023-01-01T17:42:42.755Z,19.40
2023-01-01T17:45:12.325Z,19.40
2023-01-01T17:47:41.389Z,19.30
2023-01-01T17:50:11.054Z,19.30
2023-01-01T17:52:40.170Z,19.30
2023-01-01T17:55:09.973Z,19.30
2023-01-01T17:57:39.036Z,19.30
2023-01-01T18:00:11.541Z,19.30
2023-01-01T18:02:40.865Z,19.20
2023-01-01T18:05:10.448Z,19.20
2023-01-01T18:07:39.645Z,19.20
2023-01-01T18:10:09.291Z,19.20
2023-01-01T18:12:38.456Z,19.10
2023-01-01T18:15:08.243Z,19.10
2023-01-01T18:17:37.427Z,19.00
2023-01-01T18:20:07.746Z,19.00
2023-01-01T18:22:42.881Z,19.00
2023-01-01T18:25:12.923Z,19.00
2023-01-01T18:27:42.184Z,19.00
2023-01-01T18:30:11.759Z,19.00
2023-01-01T18:32:40.892Z,19.00
2023-01-01T18:35:10.476Z,18.90
2023-01-01T18:37:39.829Z,18.90
2023-01-01T18:40:18.665Z,18.90
2023-01-01T18:43:10.731Z,18.90
2023-01-01T18:45:39.863Z,18.90
2023-01-01T18:48:17.790Z,18.90
2023-01-01T18:50:46.917Z,18.90
2023-01-01T18:53:24.017Z,18.90
2023-01-01T18:56:11.129Z,18.80
2023-01-01T18:58:46.306Z,18.80
2023-01-01T19:01:23.679Z,18.80
2023-01-01T19:04:01.773Z,18.80
2023-01-01T19:06:35.163Z,18.70
2023-01-01T19:09:25.362Z,18.70
2023-01-01T19:11:56.622Z,18.70
2023-01-01T19:14:33.588Z,18.60
2023-01-01T19:17:14.732Z,18.60
2023-01-01T19:19:43.923Z,18.60
2023-01-01T19:22:35.495Z,18.60
2023-01-01T19:25:37.384Z,18.50
2023-01-01T19:28:32.680Z,18.50
2023-01-01T19:31:03.113Z,18.50
2023-01-01T19:33:33.321Z,18.50
2023-01-01T19:36:02.740Z,18.50
2023-01-01T19:38:31.897Z,18.50
2023-01-01T19:41:01.189Z,18.40
2023-01-01T19:43:30.355Z,18.40
2023-01-01T19:45:59.580Z,18.40
2023-01-01T19:48:29.111Z,18.30
2023-01-01T19:50:59.222Z,18.30
2023-01-01T19:53:28.531Z,18.30
2023-01-01T19:55:57.823Z,18.30
2023-01-01T19:58:27.055Z,18.30
2023-01-01T20:00:56.376Z,18.20
2023-01-01T20:03:52.948Z,18.20
2023-01-01T20:06:14.855Z,18.20
2023-01-01T20:08:44.009Z,18.10
2023-01-01T20:11:13.241Z,18.10
2023-01-01T20:13:42.461Z,18.10
2023-01-01T20:16:11.948Z,18.10
2023-01-01T20:18:41.320Z,18.00
2023-01-01T20:21:28.806Z,18.00
2023-01-01T20:23:58.091Z,18.00
2023-01-01T20:26:27.281Z,18.00
2023-01-01T20:29:14.593Z,18.00
2023-01-01T20:31:44.870Z,17.90
2023-01-01T20:34:14.282Z,17.90
2023-01-01T20:37:01.933Z,17.90
2023-01-01T20:39:31.524Z,17.80
2023-01-01T20:42:00.956Z,17.80
2023-01-01T20:44:30.603Z,17.70
2023-01-01T20:47:00.737Z,17.60
2023-01-01T20:49:29.946Z,17.50
2023-01-01T20:51:59.100Z,17.50
2023-01-01T20:54:28.367Z,17.50
2023-01-01T20:56:57.652Z,17.40
2023-01-01T20:59:36.555Z,17.30
2023-01-01T21:02:10.229Z,17.30
2023-01-01T21:04:41.102Z,17.30
2023-01-01T21:07:14.561Z,17.20
2023-01-01T21:09:44.271Z,17.20
2023-01-01T21:12:13.457Z,17.20
2023-01-01T21:14:45.543Z,17.20
2023-01-01T21:17:24.762Z,17.20
2023-01-01T21:19:58.549Z,17.20
2023-01-01T21:22:29.273Z,17.20
2023-01-01T21:25:24.065Z,17.20
2023-01-01T21:27:49.142Z,17.20
2023-01-01T21:30:18.513Z,17.20
2023-01-01T21:32:50.996Z,17.20
2023-01-01T21:35:35.867Z,17.20
2023-01-01T21:38:32.764Z,17.20
2023-01-01T21:41:04.519Z,17.20
2023-01-01T21:43:43.574Z,17.10
2023-01-01T21:46:12.900Z,17.10
2023-01-01T21:49:03.733Z,17.10
2023-01-01T21:51:47.177Z,17.10
2023-01-01T21:54:40.475Z,17.10
2023-01-01T21:57:26.465Z,17.10
2023-01-01T21:59:56.233Z,17.10
2023-01-01T22:02:38.866Z,17.20
2023-01-01T22:05:35.037Z,17.20
2023-01-01T22:08:26.415Z,17.20
2023-01-01T22:10:57.634Z,17.20
2023-01-01T22:13:28.329Z,17.30
2023-01-01T22:15:57.477Z,17.20
2023-01-01T22:18:32.080Z,17.30
2023-01-01T22:21:04.533Z,17.20
2023-01-01T22:23:44.307Z,17.20
2023-01-01T22:26:28.607Z,17.20
2023-01-01T22:29:09.937Z,17.20
2023-01-01T22:31:47.099Z,17.20
2023-01-01T22:34:24.334Z,17.20
2023-01-01T22:36:54.200Z,17.20
2023-01-01T22:39:37.499Z,17.20
2023-01-01T22:42:06.715Z,17.20
2023-01-01T22:44:37.898Z,17.20
2023-01-01T22:47:17.202Z,17.20
2023-01-01T22:49:53.655Z,17.20
2023-01-01T22:52:22.849Z,17.20
2023-01-01T22:54:52.028Z,17.20
2023-01-01T22:57:21.214Z,17.20
2023-01-01T22:59:50.351Z,17.20
2023-01-01T23:02:19.604Z,17.20
2023-01-01T23:04:48.866Z,17.20
2023-01-01T23:07:18.046Z,17.20
2023-01-01T23:09:47.235Z,17.20
2023-01-01T23:12:16.711Z,17.10
2023-01-01T23:15:04.362Z,17.10
2023-01-01T23:17:33.582Z,17.20
2023-01-01T23:20:03.078Z,17.10
2023-01-01T23:22:38.350Z,17.10
2023-01-01T23:25:14.795Z,17.10
2023-01-01T23:27:45.126Z,17.10
2023-01-01T23:30:16.327Z,17.10
2023-01-01T23:32:46.240Z,17.10
2023-01-01T23:35:15.876Z,17.10
2023-01-01T23:37:45.002Z,17.10
2023-01-01T23:40:14.325Z,17.10
2023-01-01T23:42:43.422Z,17.10
2023-01-01T23:45:12.798Z,17.10
2023-01-01T23:47:42.163Z,17.10
2023-01-01T23:50:11.821Z,17.10
2023-01-01T23:52:41.595Z,17.10
2023-01-01T23:55:11.136Z,17.20
2023-01-01T23:57:40.213Z,17.20
